Hartney, Canada
Current Conditions -  °F | °C
As of 5:00 PM on Wednesday 26 Nov 2014 (Local Time) from CYBR Reporting Station
Few Clouds Few Clouds  
Wind Chill: -21°   Ceiling: Unl
Heat Index: -6°   Visibility: 15mi
Dew Point: -13°   Wind: 8mph
Humidity: 71%   Direction: 280°W
Pressure: 30.47"   Gusts: NA
Location:  49.48°N, 100.52°W
Report Text: CYBR 262300Z 28007KT 15SM FEW250 M21/M25 A3047 RMK CI1 CI TR SLP369
Loading
Personal Weather Stations






























Interactive Weather Map New forecast layout! Learn more

10-Day Weather Forecast

Advertisements
Track Severe Weather on mobile